Observation data for Friona on 05/24/2020      Previous  Date  Next       Current Mesonet Observations  Soil Data  Daily Summary Page  Observations in Plain Language
KFAS 240500Z 16017G24KT 17/11 A2984 RMK A01 T01730113  RH  071%=      5-min Rain = 0
KFAS 240505Z 16017G23KT 17/11 A2984 RMK A01 T01730114  RH  071%=      5-min Rain = 0
KFAS 240510Z 16017KT 17/11 A2984 RMK A01 T01730114  RH  071%=      5-min Rain = 0
KFAS 240515Z 16017KT 17/11 A2984 RMK A01 T01730113  RH  070%=      5-min Rain = 0
KFAS 240520Z 16017G23KT 17/11 A2984 RMK A01 T01740113  RH  070%=      5-min Rain = 0
KFAS 240525Z 16016KT 17/11 A2984 RMK A01 T01730113  RH  070%=      5-min Rain = 0
KFAS 240530Z 16017G23KT 17/11 A2984 RMK A01 T01730112  RH  070%=      5-min Rain = 0
KFAS 240535Z 16017G22KT 17/11 A2984 RMK A01 T01740112  RH  069%=      5-min Rain = 0
KFAS 240540Z 16018KT 17/11 A2984 RMK A01 T01740112  RH  069%=      5-min Rain = 0
KFAS 240545Z 16018KT 17/11 A2984 RMK A01 T01740111  RH  069%=      5-min Rain = 0
KFAS 240550Z 16017KT 17/11 A2984 RMK A01 T01730111  RH  069%=      5-min Rain = 0
KFAS 240555Z 16017KT 17/11 A2984 RMK A01 T01730111  RH  069%=      5-min Rain = 0
KFAS 240600Z 16017KT 17/11 A2984 RMK A01 T01730111  RH  069%=      5-min Rain = 0
KFAS 240605Z 16017KT 17/11 A2984 RMK A01 T01720111  RH  069%=      5-min Rain = 0
KFAS 240610Z 16017KT 17/11 A2984 RMK A01 T01720110  RH  069%=      5-min Rain = 0
KFAS 240615Z 16017G22KT 17/11 A2984 RMK A01 T01710110  RH  070%=      5-min Rain = 0
KFAS 240620Z 16018KT 17/11 A2984 RMK A01 T01720110  RH  069%=      5-min Rain = 0
KFAS 240625Z 16017KT 17/11 A2984 RMK A01 T01710110  RH  069%=      5-min Rain = 0
KFAS 240630Z 17016G21KT 17/11 A2984 RMK A01 T01700110  RH  070%=      5-min Rain = 0
KFAS 240635Z 17017KT 17/11 A2984 RMK A01 T01690109  RH  070%=      5-min Rain = 0
KFAS 240640Z 17016KT 17/11 A2984 RMK A01 T01690109  RH  070%=      5-min Rain = 0
KFAS 240645Z 17017G22KT 17/11 A2984 RMK A01 T01700109  RH  070%=      5-min Rain = 0
KFAS 240650Z 17016G21KT 17/11 A2984 RMK A01 T01710109  RH  069%=      5-min Rain = 0
KFAS 240655Z 17017G23KT 17/11 A2984 RMK A01 T01720110  RH  069%=      5-min Rain = 0
KFAS 240700Z 17018KT 17/11 A2984 RMK A01 T01740111  RH  069%=      5-min Rain = 0
KFAS 240705Z 17017KT 18/11 A2984 RMK A01 T01750112  RH  069%=      5-min Rain = 0
KFAS 240710Z 17018G23KT 18/11 A2984 RMK A01 T01760113  RH  069%=      5-min Rain = 0
KFAS 240715Z 17018KT 18/11 A2984 RMK A01 T01760113  RH  069%=      5-min Rain = 0
KFAS 240720Z 17018KT 18/11 A2984 RMK A01 T01760114  RH  069%=      5-min Rain = 0
KFAS 240725Z 17018G23KT 18/11 A2984 RMK A01 T01760114  RH  069%=      5-min Rain = 0
KFAS 240730Z 17018G23KT 18/11 A2984 RMK A01 T01760114  RH  070%=      5-min Rain = 0
KFAS 240735Z 17018KT 18/12 A2984 RMK A01 T01770115  RH  069%=      5-min Rain = 0
KFAS 240740Z 17019G25KT 18/12 A2984 RMK A01 T01770115  RH  069%=      5-min Rain = 0
KFAS 240745Z 17019G24KT 18/11 A2984 RMK A01 T01770114  RH  069%=      5-min Rain = 0
KFAS 240750Z 17019G24KT 18/11 A2984 RMK A01 T01760113  RH  069%=      5-min Rain = 0
KFAS 240755Z 17019G24KT 18/11 A2985 RMK A01 T01760113  RH  069%=      5-min Rain = 0
KFAS 240800Z 17017KT 17/11 A2985 RMK A01 T01740112  RH  069%=      5-min Rain = 0
KFAS 240805Z 17018KT 17/11 A2985 RMK A01 T01720113  RH  071%=      5-min Rain = 0
KFAS 240810Z 17018KT 17/11 A2985 RMK A01 T01710114  RH  072%=      5-min Rain = 0
KFAS 240815Z 17018KT 17/11 A2985 RMK A01 T01700114  RH  072%=      5-min Rain = 0
KFAS 240820Z 17018G23KT 17/12 A2985 RMK A01 T01700115  RH  073%=      5-min Rain = 0
KFAS 240825Z 17020KT 17/12 A2985 RMK A01 T01700115  RH  072%=      5-min Rain = 0
KFAS 240830Z 17020G25KT 17/12 A2985 RMK A01 T01700115  RH  073%=      5-min Rain = 0
KFAS 240835Z 17018G23KT 17/12 A2985 RMK A01 T01690115  RH  073%=      5-min Rain = 0
KFAS 240840Z 17020KT 17/12 A2985 RMK A01 T01680115  RH  074%=      5-min Rain = 0
KFAS 240845Z 17019G24KT 17/12 A2985 RMK A01 T01690115  RH  073%=      5-min Rain = 0
KFAS 240850Z 17020G27KT 17/12 A2985 RMK A01 T01690116  RH  073%=      5-min Rain = 0
KFAS 240855Z 17020G25KT 17/12 A2985 RMK A01 T01690116  RH  074%=      5-min Rain = 0
KFAS 240900Z 17019G25KT 17/12 A2985 RMK A01 T01690116  RH  074%=      5-min Rain = 0
KFAS 240905Z 17018G24KT 17/12 A2985 RMK A01 T01680116  RH  074%=      5-min Rain = 0
KFAS 240910Z 17020G25KT 17/12 A2985 RMK A01 T01670116  RH  075%=      5-min Rain = 0
KFAS 240915Z 18018G24KT 17/12 A2985 RMK A01 T01680116  RH  074%=      5-min Rain = 0
KFAS 240920Z 17019G25KT 17/12 A2985 RMK A01 T01670116  RH  075%=      5-min Rain = 0
KFAS 240925Z 18018G25KT 17/12 A2985 RMK A01 T01660116  RH  075%=      5-min Rain = 0
KFAS 240930Z 18018KT 17/12 A2985 RMK A01 T01650116  RH  075%=      5-min Rain = 0
KFAS 240935Z 18018G24KT 17/12 A2985 RMK A01 T01650116  RH  076%=      5-min Rain = 0
KFAS 240940Z 18019KT 16/12 A2985 RMK A01 T01640116  RH  076%=      5-min Rain = 0
KFAS 240945Z 18018G24KT 16/12 A2985 RMK A01 T01640116  RH  076%=      5-min Rain = 0
KFAS 240950Z 18019KT 16/12 A2985 RMK A01 T01640115  RH  076%=      5-min Rain = 0
KFAS 240955Z 18018KT 16/12 A2985 RMK A01 T01620115  RH  076%=      5-min Rain = 0
KFAS 241000Z 18017KT 16/11 A2985 RMK A01 T01610114  RH  077%=      5-min Rain = 0
KFAS 241005Z 18016KT 16/12 A2985 RMK A01 T01600115  RH  077%=      5-min Rain = 0
KFAS 241010Z 18017KT 16/12 A2985 RMK A01 T01590115  RH  078%=      5-min Rain = 0
KFAS 241015Z 18016KT 16/11 A2985 RMK A01 T01590114  RH  078%=      5-min Rain = 0
KFAS 241020Z 18016KT 16/11 A2985 RMK A01 T01580114  RH  078%=      5-min Rain = 0
KFAS 241025Z 18017KT 16/11 A2985 RMK A01 T01570114  RH  078%=      5-min Rain = 0
KFAS 241030Z 18016G21KT 16/11 A2985 RMK A01 T01570113  RH  078%=      5-min Rain = 0
KFAS 241035Z 18015KT 16/11 A2986 RMK A01 T01560113  RH  078%=      5-min Rain = 0
KFAS 241040Z 18015KT 16/11 A2986 RMK A01 T01550113  RH  079%=      5-min Rain = 0
KFAS 241045Z 17014G19KT 15/11 A2986 RMK A01 T01530112  RH  079%=      5-min Rain = 0
KFAS 241050Z 17014KT 15/11 A2986 RMK A01 T01520112  RH  080%=      5-min Rain = 0
KFAS 241055Z 17014KT 15/11 A2986 RMK A01 T01510112  RH  080%=      5-min Rain = 0
KFAS 241100Z 17014KT 15/11 A2986 RMK A01 T01490111  RH  081%=      5-min Rain = 0
KFAS 241105Z 17014KT 15/11 A2986 RMK A01 T01490111  RH  081%=      5-min Rain = 0
KFAS 241110Z 17012KT 15/11 A2986 RMK A01 T01460110  RH  081%=      5-min Rain = 0
KFAS 241115Z 17013KT 15/11 A2986 RMK A01 T01450110  RH  082%=      5-min Rain = 0
KFAS 241120Z 17015KT 14/11 A2986 RMK A01 T01440110  RH  083%=      5-min Rain = 0
KFAS 241125Z 18013KT 14/11 A2986 RMK A01 T01440109  RH  082%=      5-min Rain = 0
KFAS 241130Z 18014KT 14/11 A2986 RMK A01 T01440109  RH  083%=      5-min Rain = 0
KFAS 241135Z 18013KT 14/11 A2986 RMK A01 T01430109  RH  083%=      5-min Rain = 0
KFAS 241140Z 18014KT 14/11 A2986 RMK A01 T01440109  RH  083%=      5-min Rain = 0
KFAS 241145Z 19013G18KT 14/11 A2986 RMK A01 T01430110  RH  083%=      5-min Rain = 0
KFAS 241150Z 19014KT 14/11 A2987 RMK A01 T01420110  RH  084%=      5-min Rain = 0
KFAS 241155Z 18014G19KT 14/11 A2987 RMK A01 T01420110  RH  084%=      5-min Rain = 0
KFAS 241200Z 18013KT 14/11 A2987 RMK A01 T01410109  RH  084%=      5-min Rain = 0
KFAS 241205Z 19013KT 14/11 A2988 RMK A01 T01410110  RH  084%=      5-min Rain = 0
KFAS 241210Z 19010KT 14/11 A2988 RMK A01 T01410109  RH  084%=      5-min Rain = 0
KFAS 241215Z 19011KT 14/11 A2988 RMK A01 T01420110  RH  084%=      5-min Rain = 0
KFAS 241220Z 19012KT 14/11 A2988 RMK A01 T01430110  RH  083%=      5-min Rain = 0
KFAS 241225Z 19011KT 15/11 A2988 RMK A01 T01450111  RH  083%=      5-min Rain = 0
KFAS 241230Z 19012KT 15/11 A2988 RMK A01 T01480112  RH  082%=      5-min Rain = 0
KFAS 241235Z 19012KT 15/11 A2988 RMK A01 T01500113  RH  081%=      5-min Rain = 0
KFAS 241240Z 19012KT 15/11 A2988 RMK A01 T01530114  RH  080%=      5-min Rain = 0
KFAS 241245Z 19014KT 16/12 A2988 RMK A01 T01560115  RH  079%=      5-min Rain = 0
KFAS 241250Z 19013KT 16/12 A2988 RMK A01 T01580115  RH  078%=      5-min Rain = 0
KFAS 241255Z 19014KT 16/12 A2988 RMK A01 T01590115  RH  078%=      5-min Rain = 0
KFAS 241300Z 19014KT 16/12 A2988 RMK A01 T01570115  RH  079%=      5-min Rain = 0
KFAS 241305Z 19015KT 16/12 A2988 RMK A01 T01590116  RH  079%=      5-min Rain = 0
KFAS 241310Z 19015KT 16/12 A2988 RMK A01 T01620117  RH  077%=      5-min Rain = 0
KFAS 241315Z 19015G20KT 17/12 A2988 RMK A01 T01650118  RH  076%=      5-min Rain = 0
KFAS 241320Z 19015G21KT 17/12 A2988 RMK A01 T01650118  RH  076%=      5-min Rain = 0
KFAS 241325Z 19016KT 17/12 A2988 RMK A01 T01650118  RH  077%=      5-min Rain = 0
KFAS 241330Z 19015KT 17/12 A2988 RMK A01 T01660119  RH  076%=      5-min Rain = 0
KFAS 241335Z 20015G21KT 17/12 A2988 RMK A01 T01700120  RH  075%=      5-min Rain = 0
KFAS 241340Z 20018KT 17/12 A2987 RMK A01 T01740121  RH  074%=      5-min Rain = 0
KFAS 241345Z 20017KT 18/12 A2987 RMK A01 T01750121  RH  073%=      5-min Rain = 0
KFAS 241350Z 20017KT 17/12 A2987 RMK A01 T01740122  RH  074%=      5-min Rain = 0
KFAS 241355Z 21016G21KT 18/12 A2987 RMK A01 T01800124  RH  072%=      5-min Rain = 0
KFAS 241400Z 20017G23KT 18/12 A2987 RMK A01 T01840124  RH  071%=      5-min Rain = 0
KFAS 241405Z 20018G24KT 18/13 A2987 RMK A01 T01840125  RH  071%=      5-min Rain = 0
KFAS 241410Z 21018G23KT 19/13 A2987 RMK A01 T01880126  RH  070%=      5-min Rain = 0
KFAS 241415Z 20019KT 19/13 A2987 RMK A01 T01890126  RH  069%=      5-min Rain = 0
KFAS 241420Z 20018G23KT 19/13 A2987 RMK A01 T01930126  RH  068%=      5-min Rain = 0
KFAS 241425Z 21018G23KT 20/13 A2987 RMK A01 T01950125  RH  066%=      5-min Rain = 0
KFAS 241430Z 21018KT 20/13 A2987 RMK A01 T01970126  RH  066%=      5-min Rain = 0
KFAS 241435Z 21019G25KT 20/13 A2987 RMK A01 T02020125  RH  064%=      5-min Rain = 0
KFAS 241440Z 21017G22KT 21/13 A2987 RMK A01 T02070125  RH  062%=      5-min Rain = 0
KFAS 241445Z 21018KT 21/13 A2987 RMK A01 T02100125  RH  060%=      5-min Rain = 0
KFAS 241450Z 21015G20KT 22/13 A2987 RMK A01 T02150127  RH  059%=      5-min Rain = 0
KFAS 241455Z 22016KT 22/13 A2987 RMK A01 T02190126  RH  058%=      5-min Rain = 0
KFAS 241500Z 22016KT 23/12 A2986 RMK A01 T02270123  RH  054%=      5-min Rain = 0
KFAS 241505Z 22016KT 23/12 A2986 RMK A01 T02290119  RH  052%=      5-min Rain = 0
KFAS 241510Z 22015KT 23/12 A2986 RMK A01 T02290118  RH  051%=      5-min Rain = 0
KFAS 241515Z 23013G18KT 23/12 A2986 RMK A01 T02310118  RH  051%=      5-min Rain = 0
KFAS 241520Z 25011KT 23/12 A2987 RMK A01 T02330119  RH  050%=      5-min Rain = 0
KFAS 241525Z 26010G15KT 24/11 A2988 RMK A01 T02350114  RH  048%=      5-min Rain = 0
KFAS 241530Z 28012KT 24/11 A2988 RMK A01 T02370106  RH  045%=      5-min Rain = 0
KFAS 241535Z 27009G15KT 24/11 A2988 RMK A01 T02360105  RH  045%=      5-min Rain = 0
KFAS 241540Z 27008KT 24/11 A2988 RMK A01 T02390106  RH  044%=      5-min Rain = 0
KFAS 241545Z 26007G12KT 24/11 A2987 RMK A01 T02440107  RH  044%=      5-min Rain = 0
KFAS 241550Z 27008G13KT 25/11 A2987 RMK A01 T02490105  RH  041%=      5-min Rain = 0
KFAS 241555Z 28009G14KT 25/10 A2987 RMK A01 T02480099  RH  040%=      5-min Rain = 0
KFAS 241600Z 25009KT 25/10 A2987 RMK A01 T02490096  RH  039%=      5-min Rain = 0
KFAS 241605Z 26010KT 25/09 A2987 RMK A01 T02530091  RH  037%=      5-min Rain = 0
KFAS 241610Z 28008KT 25/08 A2987 RMK A01 T02520077  RH  033%=      5-min Rain = 0
KFAS 241615Z 28010G15KT 26/07 A2987 RMK A01 T02560065  RH  030%=      5-min Rain = 0
KFAS 241620Z 27008G13KT 26/06 A2987 RMK A01 T02560061  RH  029%=      5-min Rain = 0
KFAS 241625Z 27010KT 26/06 A2987 RMK A01 T02580060  RH  029%=      5-min Rain = 0
KFAS 241630Z 26008KT 26/07 A2987 RMK A01 T02620066  RH  029%=      5-min Rain = 0
KFAS 241635Z 24007G13KT 26/07 A2987 RMK A01 T02620071  RH  030%=      5-min Rain = 0
KFAS 241640Z 22010G15KT 27/07 A2986 RMK A01 T02650074  RH  030%=      5-min Rain = 0
KFAS 241645Z 23007G13KT 27/07 A2987 RMK A01 T02650074  RH  031%=      5-min Rain = 0
KFAS 241650Z 23005KT 27/07 A2987 RMK A01 T02670073  RH  030%=      5-min Rain = 0
KFAS 241655Z 26008KT 27/07 A2987 RMK A01 T02720068  RH  028%=      5-min Rain = 0
KFAS 241700Z 29009KT 28/06 A2987 RMK A01 T02750055  RH  025%=      5-min Rain = 0
KFAS 241705Z 28010KT 28/05 A2987 RMK A01 T02750046  RH  024%=      5-min Rain = 0
KFAS 241710Z 29008KT 28/05 A2987 RMK A01 T02790045  RH  023%=      5-min Rain = 0
KFAS 241715Z 25008KT 28/04 A2987 RMK A01 T02790043  RH  023%=      5-min Rain = 0
KFAS 241720Z 29006KT 28/05 A2987 RMK A01 T02810050  RH  023%=      5-min Rain = 0
KFAS 241725Z 29008KT 28/05 A2987 RMK A01 T02830051  RH  023%=      5-min Rain = 0
KFAS 241730Z 25006KT 28/04 A2987 RMK A01 T02840037  RH  021%=      5-min Rain = 0
KFAS 241735Z 27006G13KT 28/04 A2987 RMK A01 T02830039  RH  021%=      5-min Rain = 0
KFAS 241740Z 31007KT 28/04 A2987 RMK A01 T02790039  RH  022%=      5-min Rain = 0
KFAS 241745Z 33006G11KT 28/04 A2987 RMK A01 T02820043  RH  022%=      5-min Rain = 0
KFAS 241750Z 33007G15KT 29/05 A2986 RMK A01 T02850050  RH  023%=      5-min Rain = 0
KFAS 241755Z 33010G15KT 28/06 A2986 RMK A01 T02830056  RH  024%=      5-min Rain = 0
KFAS 241800Z 35010G16KT 28/06 A2986 RMK A01 T02820055  RH  024%=      5-min Rain = 0
KFAS 241805Z 33009G15KT 29/05 A2986 RMK A01 T02850054  RH  023%=      5-min Rain = 0
KFAS 241810Z 34012KT 29/06 A2986 RMK A01 T02850058  RH  024%=      5-min Rain = 0
KFAS 241815Z 33011KT 28/06 A2986 RMK A01 T02810056  RH  024%=      5-min Rain = 0
KFAS 241820Z 33011G16KT 28/05 A2986 RMK A01 T02840050  RH  023%=      5-min Rain = 0
KFAS 241825Z 34011KT 28/06 A2985 RMK A01 T02840055  RH  024%=      5-min Rain = 0
KFAS 241830Z 34010KT 29/05 A2985 RMK A01 T02870050  RH  023%=      5-min Rain = 0
KFAS 241835Z 33008G13KT 29/05 A2985 RMK A01 T02860049  RH  023%=      5-min Rain = 0
KFAS 241840Z 34008G14KT 29/05 A2985 RMK A01 T02890049  RH  022%=      5-min Rain = 0
KFAS 241845Z 33011KT 29/04 A2984 RMK A01 T02910042  RH  021%=      5-min Rain = 0
KFAS 241850Z 32009KT 29/04 A2984 RMK A01 T02920041  RH  021%=      5-min Rain = 0
KFAS 241855Z 36007KT 29/04 A2984 RMK A01 T02910043  RH  021%=      5-min Rain = 0
KFAS 241900Z 25005KT 30/04 A2984 RMK A01 T02990044  RH  020%=      5-min Rain = 0
KFAS 241905Z 21005KT 30/04 A2984 RMK A01 T02980038  RH  019%=      5-min Rain = 0
KFAS 241910Z 29009G16KT 30/04 A2983 RMK A01 T02960039  RH  020%=      5-min Rain = 0
KFAS 241915Z 33005G10KT 29/04 A2983 RMK A01 T02930037  RH  020%=      5-min Rain = 0
KFAS 241920Z 28008G14KT 30/04 A2983 RMK A01 T02950040  RH  020%=      5-min Rain = 0
KFAS 241925Z 30006G11KT 30/04 A2983 RMK A01 T02950039  RH  020%=      5-min Rain = 0
KFAS 241930Z 28009G15KT 29/04 A2984 RMK A01 T02920036  RH  020%=      5-min Rain = 0
KFAS 241935Z 28004KT 29/04 A2983 RMK A01 T02890036  RH  020%=      5-min Rain = 0
KFAS 241940Z 25004G10KT 29/04 A2983 RMK A01 T02940037  RH  020%=      5-min Rain = 0
KFAS 241945Z 30005KT 30/03 A2983 RMK A01 T02960034  RH  019%=      5-min Rain = 0
KFAS 241950Z 29005KT 30/03 A2982 RMK A01 T02980030  RH  018%=      5-min Rain = 0
KFAS 241955Z 26004G10KT 30/02 A2982 RMK A01 T02990019  RH  017%=      5-min Rain = 0
KFAS 242000Z 11004KT 29/01 A2982 RMK A01 T02910013  RH  017%=      5-min Rain = 0
KFAS 242005Z 07002KT 29/02 A2982 RMK A01 T02900020  RH  018%=      5-min Rain = 0
KFAS 242010Z 34007G12KT 29/03 A2982 RMK A01 T02920034  RH  020%=      5-min Rain = 0
KFAS 242015Z 34008KT 29/04 A2982 RMK A01 T02900035  RH  020%=      5-min Rain = 0
KFAS 242020Z 35007KT 29/04 A2982 RMK A01 T02920036  RH  020%=      5-min Rain = 0
KFAS 242025Z 30005KT 29/03 A2982 RMK A01 T02940032  RH  019%=      5-min Rain = 0
KFAS 242030Z 28008G14KT 29/02 A2981 RMK A01 T02940023  RH  018%=      5-min Rain = 0
KFAS 242035Z 31009KT 30/02 A2981 RMK A01 T02970020  RH  017%=      5-min Rain = 0
KFAS 242040Z 32006KT 30/02 A2981 RMK A01 T02970019  RH  017%=      5-min Rain = 0
KFAS 242045Z 29004G9KT 30/02 A2981 RMK A01 T02980017  RH  017%=      5-min Rain = 0
KFAS 242050Z 29005KT 30/02 A2981 RMK A01 T02960016  RH  017%=      5-min Rain = 0
KFAS 242055Z 26005G10KT 30/03 A298 RMK A01 T02990025  RH  018%=      5-min Rain = 0
KFAS 242100Z 28007KT 30/01 A298 RMK A01 T03010011  RH  016%=      5-min Rain = 0
KFAS 242105Z 28008KT 30/02 A298 RMK A01 T03010016  RH  016%=      5-min Rain = 0
KFAS 242110Z 27007KT 30/02 A2979 RMK A01 T03010023  RH  017%=      5-min Rain = 0
KFAS 242115Z 32007G12KT 30/01 A2979 RMK A01 T03020012  RH  016%=      5-min Rain = 0
KFAS 242120Z 26005KT 30/01 A2979 RMK A01 T03040012  RH  016%=      5-min Rain = 0
KFAS 242125Z 24006KT 31/01 A2979 RMK A01 T03060009  RH  015%=      5-min Rain = 0
KFAS 242130Z 19006G14KT 31/M01 A2978 RMK A01 T03111010  RH  013%=      5-min Rain = 0
KFAS 242135Z 17009G16KT 32/M01 A2978 RMK A01 T03151014  RH  012%=      5-min Rain = 0
KFAS 242140Z 21008G16KT 31/M01 A2978 RMK A01 T03131011  RH  012%=      5-min Rain = 0
KFAS 242145Z 25009G14KT 31/M01 A2977 RMK A01 T03121013  RH  012%=      5-min Rain = 0
KFAS 242150Z 22008G14KT 32/M01 A2977 RMK A01 T03171012  RH  012%=      5-min Rain = 0
KFAS 242155Z 19010G20KT 32/M02 A2977 RMK A01 T03161021  RH  011%=      5-min Rain = 0
KFAS 242200Z 23009G15KT 32/M02 A2976 RMK A01 T03181019  RH  011%=      5-min Rain = 0
KFAS 242205Z 25013KT 32/M03 A2976 RMK A01 T03161025  RH  011%=      5-min Rain = 0
KFAS 242210Z 25005G12KT 31/M03 A2976 RMK A01 T03111031  RH  011%=      5-min Rain = 0
KFAS 242215Z 22007G16KT 31/M03 A2976 RMK A01 T03141026  RH  011%=      5-min Rain = 0
KFAS 242220Z 21013G20KT 32/M03 A2975 RMK A01 T03161027  RH  011%=      5-min Rain = 0
KFAS 242225Z 23011KT 32/M03 A2975 RMK A01 T03161026  RH  011%=      5-min Rain = 0
KFAS 242230Z 22008G15KT 32/M03 A2975 RMK A01 T03151031  RH  011%=      5-min Rain = 0
KFAS 242235Z 21007G13KT 31/M03 A2975 RMK A01 T03131029  RH  011%=      5-min Rain = 0
KFAS 242240Z 23012G18KT 32/M03 A2974 RMK A01 T03171025  RH  011%=      5-min Rain = 0
KFAS 242245Z 24014G19KT 32/M03 A2974 RMK A01 T03181031  RH  010%=      5-min Rain = 0
KFAS 242250Z 23012G22KT 32/M03 A2973 RMK A01 T03181031  RH  010%=      5-min Rain = 0
KFAS 242255Z 24018G24KT 32/M03 A2972 RMK A01 T03201032  RH  010%=      5-min Rain = 0
KFAS 242300Z 25014G22KT 32/M04 A2972 RMK A01 T03191035  RH  010%=      5-min Rain = 0
KFAS 242305Z 21013KT 31/M04 A2972 RMK A01 T03081037  RH  011%=      5-min Rain = 0
KFAS 242310Z 22013G23KT 30/M04 A2972 RMK A01 T03011043  RH  010%=      5-min Rain = 0
KFAS 242315Z 23009KT 30/M04 A2972 RMK A01 T02991043  RH  011%=      5-min Rain = 0
KFAS 242320Z 23012KT 30/M04 A2972 RMK A01 T03001040  RH  011%=      5-min Rain = 0
KFAS 242325Z 23006KT 30/M04 A2971 RMK A01 T03031038  RH  011%=      5-min Rain = 0
KFAS 242330Z 23007KT 31/M04 A2971 RMK A01 T03081037  RH  011%=      5-min Rain = 0
KFAS 242335Z 20004KT 31/M04 A2971 RMK A01 T03131036  RH  010%=      5-min Rain = 0
KFAS 242340Z 26003KT 32/M03 A2971 RMK A01 T03211033  RH  010%=      5-min Rain = 0
KFAS 242345Z 25006KT 32/M04 A2971 RMK A01 T03191036  RH  010%=      5-min Rain = 0
KFAS 242350Z 26011G18KT 32/M04 A2971 RMK A01 T03181036  RH  010%=      5-min Rain = 0
KFAS 242355Z 24016KT 31/M04 A2971 RMK A01 T03141040  RH  010%=      5-min Rain = 0
KFAS 250000Z 25017KT 31/M04 A2971 RMK A01 T03131038  RH  010%=      5-min Rain = 0
KFAS 250005Z 26017KT 31/M04 A2971 RMK A01 T03071040  RH  010%=      5-min Rain = 0
KFAS 250010Z 26014KT 30/M04 A2971 RMK A01 T03011041  RH  011%=      5-min Rain = 0
KFAS 250015Z 26012G17KT 30/M04 A2971 RMK A01 T02991040  RH  011%=      5-min Rain = 0
KFAS 250020Z 26010KT 30/M04 A2971 RMK A01 T03031037  RH  011%=      5-min Rain = 0
KFAS 250025Z 27007KT 31/M04 A2971 RMK A01 T03061038  RH  011%=      5-min Rain = 0
KFAS 250030Z 24008KT 31/M04 A297 RMK A01 T03091039  RH  010%=      5-min Rain = 0
KFAS 250035Z 24013G20KT 31/M04 A297 RMK A01 T03091042  RH  010%=      5-min Rain = 0
KFAS 250040Z 24012KT 31/M05 A297 RMK A01 T03071045  RH  010%=      5-min Rain = 0
KFAS 250045Z 23014KT 31/M04 A2971 RMK A01 T03061044  RH  010%=      5-min Rain = 0
KFAS 250050Z 18009G14KT 30/M00 A2971 RMK A01 T03041002  RH  015%=      5-min Rain = 0
KFAS 250055Z 16009KT 29/04 A2971 RMK A01 T02940044  RH  021%=      5-min Rain = 0
KFAS 250100Z 17011KT 29/05 A2971 RMK A01 T02880047  RH  022%=      5-min Rain = 0
KFAS 250105Z 17011KT 28/05 A2971 RMK A01 T02840045  RH  022%=      5-min Rain = 0
KFAS 250110Z 16011KT 28/05 A297 RMK A01 T02810046  RH  023%=      5-min Rain = 0
KFAS 250115Z 17010KT 28/05 A297 RMK A01 T02770045  RH  023%=      5-min Rain = 0
KFAS 250120Z 16009KT 28/05 A2969 RMK A01 T02750046  RH  024%=      5-min Rain = 0
KFAS 250125Z 16009KT 27/05 A2969 RMK A01 T02720046  RH  024%=      5-min Rain = 0
KFAS 250130Z 16009KT 27/04 A2969 RMK A01 T02690042  RH  024%=      5-min Rain = 0
KFAS 250135Z 16008KT 26/04 A2968 RMK A01 T02640038  RH  024%=      5-min Rain = 0
KFAS 250140Z 15007KT 26/04 A2968 RMK A01 T02570039  RH  025%=      5-min Rain = 0
KFAS 250145Z 17003KT 25/04 A2969 RMK A01 T02510039  RH  026%=      5-min Rain = 0
KFAS 250150Z 17003KT 25/04 A297 RMK A01 T02510042  RH  026%=      5-min Rain = 0
KFAS 250155Z 16005KT 25/04 A2971 RMK A01 T02510040  RH  026%=      5-min Rain = 0
KFAS 250200Z 14008KT 25/03 A2971 RMK A01 T02480034  RH  025%=      5-min Rain = 0
KFAS 250205Z 14008KT 25/03 A2971 RMK A01 T02460032  RH  025%=      5-min Rain = 0
KFAS 250210Z 16006KT 24/03 A2972 RMK A01 T02410028  RH  025%=      5-min Rain = 0
KFAS 250215Z 16010KT 23/03 A2972 RMK A01 T02320027  RH  027%=      5-min Rain = 0
KFAS 250220Z 17008KT 23/02 A2972 RMK A01 T02310021  RH  025%=      5-min Rain = 0
KFAS 250225Z 16008KT 23/02 A2972 RMK A01 T02310020  RH  025%=      5-min Rain = 0
KFAS 250230Z 16008KT 23/03 A2972 RMK A01 T02290026  RH  027%=      5-min Rain = 0
KFAS 250235Z 16009KT 23/03 A2972 RMK A01 T02250029  RH  028%=      5-min Rain = 0
KFAS 250240Z 16009KT 22/03 A2972 RMK A01 T02200031  RH  029%=      5-min Rain = 0
KFAS 250245Z 17007KT 22/03 A2972 RMK A01 T02160031  RH  030%=      5-min Rain = 0
KFAS 250250Z 16008KT 22/03 A2973 RMK A01 T02150032  RH  030%=      5-min Rain = 0
KFAS 250255Z 16009KT 21/03 A2973 RMK A01 T02110032  RH  031%=      5-min Rain = 0
KFAS 250300Z 17009KT 21/03 A2973 RMK A01 T02100033  RH  032%=      5-min Rain = 0
KFAS 250305Z 17009KT 21/03 A2973 RMK A01 T02090033  RH  032%=      5-min Rain = 0
KFAS 250310Z 17009KT 21/03 A2974 RMK A01 T02070034  RH  033%=      5-min Rain = 0
KFAS 250315Z 17009KT 21/03 A2973 RMK A01 T02070033  RH  032%=      5-min Rain = 0
KFAS 250320Z 17009KT 21/03 A2973 RMK A01 T02080033  RH  032%=      5-min Rain = 0
KFAS 250325Z 18009KT 21/03 A2973 RMK A01 T02090031  RH  031%=      5-min Rain = 0
KFAS 250330Z 18010KT 21/03 A2972 RMK A01 T02100031  RH  031%=      5-min Rain = 0
KFAS 250335Z 19008KT 21/03 A2972 RMK A01 T02100032  RH  031%=      5-min Rain = 0
KFAS 250340Z 19009KT 21/03 A2972 RMK A01 T02060033  RH  032%=      5-min Rain = 0
KFAS 250345Z 19010KT 21/03 A2972 RMK A01 T02080034  RH  032%=      5-min Rain = 0
KFAS 250350Z 19010KT 21/04 A2972 RMK A01 T02060035  RH  033%=      5-min Rain = 0
KFAS 250355Z 18011KT 21/03 A2972 RMK A01 T02070033  RH  032%=      5-min Rain = 0
KFAS 250400Z 18011G16KT 21/03 A2973 RMK A01 T02060032  RH  032%=      5-min Rain = 0
KFAS 250405Z 17013KT 21/03 A2973 RMK A01 T02060033  RH  033%=      5-min Rain = 0
KFAS 250410Z 17013KT 21/04 A2974 RMK A01 T02050036  RH  034%=      5-min Rain = 0
KFAS 250415Z 17013KT 20/04 A2975 RMK A01 T02020042  RH  035%=      5-min Rain = 0
KFAS 250420Z 17012KT 20/05 A2975 RMK A01 T02010047  RH  037%=      5-min Rain = 0
KFAS 250425Z 17011KT 20/05 A2975 RMK A01 T01980052  RH  039%=      5-min Rain = 0
KFAS 250430Z 17011KT 20/06 A2975 RMK A01 T01960057  RH  041%=      5-min Rain = 0
KFAS 250435Z 17010G15KT 19/06 A2975 RMK A01 T01940061  RH  043%=      5-min Rain = 0
KFAS 250440Z 17011KT 19/07 A2975 RMK A01 T01920065  RH  045%=      5-min Rain = 0
KFAS 250445Z 17011KT 19/07 A2975 RMK A01 T01910068  RH  046%=      5-min Rain = 0
KFAS 250450Z 18011KT 19/07 A2976 RMK A01 T01900069  RH  047%=      5-min Rain = 0
KFAS 250455Z 18009G14KT 19/07 A2977 RMK A01 T01890072  RH  047%=      5-min Rain = 0

Page generated in 0.0351 seconds.